createdAt,value
2017-03-24T00:00:48.038Z,0
2017-03-24T00:01:49.288Z,0
2017-03-24T00:02:50.515Z,0
2017-03-24T00:03:51.761Z,0
2017-03-24T00:04:53.039Z,0
2017-03-24T00:05:54.336Z,0
2017-03-24T00:06:55.707Z,0
2017-03-24T00:07:57.022Z,0
2017-03-24T00:08:58.275Z,0
2017-03-24T00:09:59.502Z,0
2017-03-24T00:11:00.761Z,0
2017-03-24T00:12:02.119Z,0
2017-03-24T00:13:03.370Z,0
2017-03-24T00:14:04.628Z,0
2017-03-24T00:15:05.886Z,0
2017-03-24T00:16:07.132Z,0
2017-03-24T00:17:08.360Z,0
2017-03-24T00:18:09.672Z,0
2017-03-24T00:19:11.025Z,0
2017-03-24T00:20:12.271Z,0
2017-03-24T00:21:13.530Z,0
2017-03-24T00:22:14.782Z,0
2017-03-24T00:23:16.022Z,0
2017-03-24T00:24:17.260Z,0
2017-03-24T00:25:18.495Z,0
2017-03-24T00:26:19.817Z,0
2017-03-24T00:27:21.133Z,0
2017-03-24T00:28:22.340Z,0
2017-03-24T00:29:23.590Z,0
2017-03-24T00:30:24.806Z,0
2017-03-24T00:31:26.089Z,0
2017-03-24T00:32:27.319Z,0
2017-03-24T00:33:28.558Z,0
2017-03-24T00:34:29.817Z,0
2017-03-24T00:35:31.070Z,0
2017-03-24T00:36:32.458Z,0
2017-03-24T00:37:33.700Z,0
2017-03-24T00:38:34.982Z,0
2017-03-24T00:39:36.231Z,0
2017-03-24T00:40:37.503Z,0
2017-03-24T00:41:38.735Z,0
2017-03-24T00:42:39.971Z,0
2017-03-24T00:43:41.222Z,0
2017-03-24T00:44:42.461Z,0
2017-03-24T00:45:43.734Z,0
2017-03-24T00:46:45.054Z,0
2017-03-24T00:47:46.282Z,0
2017-03-24T00:48:47.572Z,0
2017-03-24T00:49:48.817Z,0
2017-03-24T00:50:50.056Z,0
2017-03-24T00:51:51.318Z,0
2017-03-24T00:52:52.559Z,0
2017-03-24T00:53:53.794Z,0
2017-03-24T00:54:55.044Z,0
2017-03-24T00:55:56.292Z,0
2017-03-24T00:56:57.590Z,0
2017-03-24T00:57:58.824Z,0
2017-03-24T00:59:00.089Z,0
2017-03-24T01:00:01.410Z,0
2017-03-24T01:01:02.648Z,0
2017-03-24T01:02:03.896Z,0
2017-03-24T01:03:05.193Z,0
2017-03-24T01:04:06.428Z,0
2017-03-24T01:05:07.732Z,0
2017-03-24T01:06:08.960Z,0
2017-03-24T01:07:10.203Z,0
2017-03-24T01:08:11.524Z,0
2017-03-24T01:09:12.721Z,0
2017-03-24T01:10:14.050Z,0
2017-03-24T01:11:15.275Z,0
2017-03-24T01:12:16.519Z,0
2017-03-24T01:13:17.778Z,0
2017-03-24T01:14:19.021Z,0
2017-03-24T01:15:20.296Z,0
2017-03-24T01:16:21.527Z,0
2017-03-24T01:17:22.789Z,0
2017-03-24T01:18:24.081Z,0
2017-03-24T01:19:25.310Z,0
2017-03-24T01:20:26.565Z,0
2017-03-24T01:21:27.857Z,0
2017-03-24T01:22:29.115Z,0
2017-03-24T01:23:30.377Z,0
2017-03-24T01:24:31.617Z,0
2017-03-24T01:25:32.869Z,0
2017-03-24T01:26:34.125Z,0
2017-03-24T01:27:35.366Z,0
2017-03-24T01:28:36.595Z,0
2017-03-24T01:29:37.959Z,0
2017-03-24T01:30:39.446Z,0
2017-03-24T01:31:40.685Z,0
2017-03-24T01:32:41.933Z,0
2017-03-24T01:33:43.198Z,0
2017-03-24T01:34:44.462Z,0
2017-03-24T01:35:45.839Z,0
2017-03-24T01:36:47.122Z,0
2017-03-24T01:37:48.358Z,0
2017-03-24T01:38:49.596Z,0
2017-03-24T01:39:50.836Z,0
2017-03-24T01:40:52.148Z,0
2017-03-24T01:41:53.423Z,0
2017-03-24T01:42:54.661Z,0
2017-03-24T01:43:55.896Z,0
2017-03-24T01:44:57.164Z,0
2017-03-24T01:45:58.477Z,0
2017-03-24T01:46:59.758Z,0
2017-03-24T01:48:01.009Z,0
2017-03-24T01:49:02.246Z,0
2017-03-24T01:50:03.620Z,0
2017-03-24T01:51:04.816Z,0
2017-03-24T01:52:06.081Z,0
2017-03-24T01:53:07.437Z,0
2017-03-24T01:54:08.696Z,0
2017-03-24T01:55:09.946Z,0
2017-03-24T01:56:11.193Z,0
2017-03-24T01:57:12.472Z,0
2017-03-24T01:58:13.721Z,0
2017-03-24T01:59:15.059Z,0
2017-03-24T02:00:16.309Z,0
2017-03-24T02:01:17.575Z,0
2017-03-24T02:02:18.778Z,0
2017-03-24T02:03:20.039Z,0
2017-03-24T02:04:21.275Z,0
2017-03-24T02:05:22.557Z,0
2017-03-24T02:06:23.790Z,0
2017-03-24T02:07:25.043Z,0
2017-03-24T02:08:26.289Z,0
2017-03-24T02:09:27.521Z,0
2017-03-24T02:10:28.743Z,0
2017-03-24T02:11:30.035Z,0
2017-03-24T02:12:31.269Z,0
2017-03-24T02:13:32.488Z,0
2017-03-24T02:14:33.797Z,0
2017-03-24T02:15:35.039Z,0
2017-03-24T02:16:36.277Z,0
2017-03-24T02:17:37.535Z,0
2017-03-24T02:18:38.900Z,0
2017-03-24T02:19:40.097Z,0
2017-03-24T02:20:41.429Z,0
2017-03-24T02:21:42.641Z,0
2017-03-24T02:22:43.881Z,0
2017-03-24T02:23:45.123Z,0
2017-03-24T02:24:46.349Z,0
2017-03-24T02:25:47.804Z,0
2017-03-24T02:26:49.058Z,0
2017-03-24T02:27:50.291Z,0
2017-03-24T02:28:51.562Z,0
2017-03-24T02:29:52.803Z,0
2017-03-24T02:30:54.192Z,0
2017-03-24T02:31:55.427Z,0
2017-03-24T02:32:56.666Z,0
2017-03-24T02:33:57.925Z,0
2017-03-24T02:34:59.150Z,0
2017-03-24T02:36:00.394Z,0
2017-03-24T02:37:01.628Z,0
2017-03-24T02:38:02.873Z,0
2017-03-24T02:39:04.106Z,0
2017-03-24T02:40:05.364Z,0
2017-03-24T02:41:06.605Z,0
2017-03-24T02:42:07.863Z,0
2017-03-24T02:43:09.118Z,0
2017-03-24T02:44:10.350Z,0
2017-03-24T02:45:11.597Z,0
2017-03-24T02:46:12.832Z,0
2017-03-24T02:47:14.082Z,0
2017-03-24T02:48:15.315Z,0
2017-03-24T02:49:16.687Z,0
2017-03-24T02:50:17.911Z,0
2017-03-24T02:51:19.196Z,0
2017-03-24T02:52:20.436Z,0
2017-03-24T02:53:21.678Z,0
2017-03-24T02:54:22.914Z,0
2017-03-24T02:55:24.151Z,0
2017-03-24T02:56:25.405Z,0
2017-03-24T02:57:26.734Z,0
2017-03-24T02:58:27.968Z,0
2017-03-24T02:59:29.205Z,0
2017-03-24T03:00:30.436Z,0
2017-03-24T03:01:31.677Z,0
2017-03-24T03:02:33.043Z,0
2017-03-24T03:03:34.190Z,0
2017-03-24T03:04:35.448Z,0
2017-03-24T03:05:36.718Z,0
2017-03-24T03:06:37.935Z,0
2017-03-24T03:07:39.175Z,0
2017-03-24T03:08:40.424Z,0
2017-03-24T03:09:41.665Z,0
2017-03-24T03:10:42.903Z,0
2017-03-24T03:11:44.181Z,0
2017-03-24T03:12:45.389Z,0
2017-03-24T03:13:46.638Z,0
2017-03-24T03:14:47.890Z,0
2017-03-24T03:15:49.163Z,0
2017-03-24T03:16:50.387Z,0
2017-03-24T03:17:51.646Z,0
2017-03-24T03:18:52.866Z,0
2017-03-24T03:19:54.102Z,0
2017-03-24T03:20:55.333Z,0
2017-03-24T03:21:56.594Z,0
2017-03-24T03:22:57.912Z,0
2017-03-24T03:23:59.185Z,0
2017-03-24T03:25:00.433Z,0
2017-03-24T03:26:01.670Z,0
2017-03-24T03:27:02.918Z,0
2017-03-24T03:28:04.138Z,0
2017-03-24T03:29:05.390Z,0
2017-03-24T03:30:06.732Z,0
2017-03-24T03:31:07.959Z,0
2017-03-24T03:32:09.222Z,0
2017-03-24T03:33:10.514Z,0
2017-03-24T03:34:11.758Z,0
2017-03-24T03:35:13.003Z,0
2017-03-24T03:36:14.249Z,0
2017-03-24T03:37:15.548Z,0
2017-03-24T03:38:16.780Z,0
2017-03-24T03:39:18.016Z,0
2017-03-24T03:40:19.308Z,0
2017-03-24T03:41:20.539Z,0
2017-03-24T03:42:21.808Z,0
2017-03-24T03:43:23.065Z,0
2017-03-24T03:44:24.280Z,0
2017-03-24T03:45:25.634Z,0
2017-03-24T03:46:26.854Z,0
2017-03-24T03:47:28.101Z,0
2017-03-24T03:48:29.441Z,0
2017-03-24T03:49:30.679Z,0
2017-03-24T03:50:31.938Z,0
2017-03-24T03:51:33.159Z,0
2017-03-24T03:52:34.435Z,0
2017-03-24T03:53:35.657Z,0
2017-03-24T03:54:37.002Z,0
2017-03-24T03:55:38.144Z,0
2017-03-24T03:56:39.506Z,0
2017-03-24T03:57:40.745Z,0
2017-03-24T03:58:41.984Z,0
2017-03-24T03:59:43.328Z,0
2017-03-24T04:00:44.471Z,0
2017-03-24T04:01:45.802Z,0
2017-03-24T04:02:47.095Z,0
2017-03-24T04:03:48.330Z,0
2017-03-24T04:04:49.589Z,0
2017-03-24T04:05:50.817Z,0
2017-03-24T04:06:52.137Z,0
2017-03-24T04:07:53.459Z,0
2017-03-24T04:08:54.695Z,0
2017-03-24T04:09:55.928Z,0
2017-03-24T04:10:57.173Z,0
2017-03-24T04:11:58.425Z,0
2017-03-24T04:12:59.668Z,0
2017-03-24T04:14:00.917Z,0
2017-03-24T04:15:02.209Z,0
2017-03-24T04:16:03.439Z,0
2017-03-24T04:17:04.669Z,0
2017-03-24T04:18:05.910Z,0
2017-03-24T04:19:07.167Z,0
2017-03-24T04:20:08.400Z,0
2017-03-24T04:21:09.639Z,0
2017-03-24T04:22:10.885Z,0
2017-03-24T04:23:12.125Z,0
2017-03-24T04:24:13.375Z,0
2017-03-24T04:25:14.604Z,0
2017-03-24T04:26:15.831Z,0
2017-03-24T04:27:17.139Z,0
2017-03-24T04:28:18.352Z,0
2017-03-24T04:29:19.619Z,0
2017-03-24T04:30:20.864Z,0
2017-03-24T04:31:22.080Z,0
2017-03-24T04:32:23.339Z,0
2017-03-24T04:33:24.571Z,0
2017-03-24T04:34:25.870Z,0
2017-03-24T04:35:27.212Z,0
2017-03-24T04:36:28.454Z,0
2017-03-24T04:37:29.696Z,0
2017-03-24T04:38:30.931Z,0
2017-03-24T04:39:32.241Z,0
2017-03-24T04:40:33.531Z,0
2017-03-24T04:41:34.770Z,0
2017-03-24T04:42:36.018Z,0
2017-03-24T04:43:37.252Z,0
2017-03-24T04:44:38.489Z,0
2017-03-24T04:45:39.729Z,0
2017-03-24T04:46:40.969Z,0
2017-03-24T04:47:42.232Z,0
2017-03-24T04:48:43.452Z,0
2017-03-24T04:49:44.704Z,4
2017-03-24T04:50:45.925Z,4
2017-03-24T04:51:47.184Z,0
2017-03-24T04:52:48.452Z,0
2017-03-24T04:53:49.691Z,0
2017-03-24T04:54:50.929Z,4
2017-03-24T04:55:52.167Z,0
2017-03-24T04:56:53.399Z,4
2017-03-24T04:57:54.642Z,4
2017-03-24T04:58:55.897Z,8
2017-03-24T04:59:57.164Z,8
2017-03-24T05:00:58.394Z,8
2017-03-24T05:01:59.653Z,8
2017-03-24T05:03:00.890Z,12
2017-03-24T05:04:02.121Z,12
2017-03-24T05:05:03.378Z,12
2017-03-24T05:06:04.611Z,16
2017-03-24T05:07:05.850Z,20
2017-03-24T05:08:07.087Z,24
2017-03-24T05:09:08.346Z,28
2017-03-24T05:10:09.567Z,32
2017-03-24T05:11:10.834Z,36
2017-03-24T05:12:12.241Z,44
2017-03-24T05:13:13.474Z,48
2017-03-24T05:14:14.713Z,52
2017-03-24T05:15:15.973Z,56
2017-03-24T05:16:17.193Z,64
2017-03-24T05:17:18.430Z,76
2017-03-24T05:18:19.918Z,88
2017-03-24T05:19:21.173Z,100
2017-03-24T05:20:22.408Z,112
2017-03-24T05:21:23.645Z,120
2017-03-24T05:22:24.914Z,132
2017-03-24T05:23:26.125Z,132
2017-03-24T05:24:27.415Z,144
2017-03-24T05:25:28.601Z,164
2017-03-24T05:26:29.859Z,192
2017-03-24T05:27:31.091Z,208
2017-03-24T05:28:32.343Z,228
2017-03-24T05:29:33.596Z,240
2017-03-24T05:30:34.850Z,264
2017-03-24T05:31:36.101Z,276
2017-03-24T05:32:37.339Z,292
2017-03-24T05:33:38.599Z,324
2017-03-24T05:34:39.806Z,368
2017-03-24T05:35:41.055Z,416
2017-03-24T05:36:42.318Z,464
2017-03-24T05:37:43.694Z,488
2017-03-24T05:38:44.939Z,512
2017-03-24T05:39:46.184Z,512
2017-03-24T05:40:47.426Z,552
2017-03-24T05:41:48.685Z,612
2017-03-24T05:42:49.901Z,640
2017-03-24T05:43:51.250Z,708
2017-03-24T05:44:52.493Z,768
2017-03-24T05:45:53.746Z,832
2017-03-24T05:46:55.146Z,872
2017-03-24T05:47:56.516Z,916
2017-03-24T05:48:57.758Z,1008
2017-03-24T05:49:59.001Z,1116
2017-03-24T05:51:00.234Z,1408
2017-03-24T05:52:01.513Z,1652
2017-03-24T05:53:02.750Z,1824
2017-03-24T05:54:03.993Z,1884
2017-03-24T05:55:05.222Z,1936
2017-03-24T05:56:06.498Z,2020
2017-03-24T05:57:07.822Z,2068
2017-03-24T05:58:09.066Z,2192
2017-03-24T05:59:10.322Z,2308
2017-03-24T06:00:11.551Z,2484
2017-03-24T06:01:12.790Z,2716
2017-03-24T06:02:14.049Z,2844
2017-03-24T06:03:15.298Z,2860
2017-03-24T06:04:16.535Z,2940
2017-03-24T06:05:17.795Z,3084
2017-03-24T06:06:19.057Z,3236
2017-03-24T06:07:20.303Z,3508
2017-03-24T06:08:21.599Z,3844
2017-03-24T06:09:22.956Z,4136
2017-03-24T06:10:24.223Z,4228
2017-03-24T06:11:25.499Z,4360
2017-03-24T06:12:26.762Z,4488
2017-03-24T06:13:27.990Z,4568
2017-03-24T06:14:29.276Z,4644
2017-03-24T06:15:30.527Z,4756
2017-03-24T06:16:31.783Z,4856
2017-03-24T06:17:33.004Z,4948
2017-03-24T06:18:34.241Z,4920
2017-03-24T06:19:35.565Z,5064
2017-03-24T06:20:36.817Z,5056
2017-03-24T06:21:38.073Z,5072
2017-03-24T06:22:39.340Z,5216
2017-03-24T06:23:40.558Z,5396
2017-03-24T06:24:41.811Z,5548
2017-03-24T06:25:43.049Z,5572
2017-03-24T06:26:44.296Z,5744
2017-03-24T06:27:45.620Z,5708
2017-03-24T06:28:46.904Z,5900
2017-03-24T06:29:48.113Z,6188
2017-03-24T06:30:49.352Z,6496
2017-03-24T06:31:50.809Z,6784
2017-03-24T06:32:52.082Z,7008
2017-03-24T06:33:53.352Z,7292
2017-03-24T06:34:54.616Z,7584
2017-03-24T06:35:55.876Z,8072
2017-03-24T06:36:57.100Z,8384
2017-03-24T06:37:58.386Z,8456
2017-03-24T06:38:59.589Z,8724
2017-03-24T06:40:00.825Z,8928
2017-03-24T06:41:02.083Z,9268
2017-03-24T06:42:03.303Z,9296
2017-03-24T06:43:04.563Z,9340
2017-03-24T06:44:05.815Z,9912
2017-03-24T06:45:07.082Z,10056
2017-03-24T06:46:08.345Z,10120
2017-03-24T06:47:09.598Z,10272
2017-03-24T06:48:10.831Z,10216
2017-03-24T06:49:12.079Z,10596
2017-03-24T06:50:13.326Z,10672
2017-03-24T06:51:14.565Z,10792
2017-03-24T06:52:15.904Z,10376
2017-03-24T06:53:17.176Z,11000
2017-03-24T06:54:18.423Z,11488
2017-03-24T06:55:19.671Z,11460
2017-03-24T06:56:20.918Z,11496
2017-03-24T06:57:22.164Z,11476
2017-03-24T06:58:23.524Z,11800
2017-03-24T06:59:24.765Z,11828
2017-03-24T07:00:26.048Z,12044
2017-03-24T07:01:27.323Z,12344
2017-03-24T07:02:28.547Z,12568
2017-03-24T07:03:29.813Z,12524
2017-03-24T07:04:31.036Z,12868
2017-03-24T07:05:32.344Z,13652
2017-03-24T07:06:33.554Z,14244
2017-03-24T07:07:34.824Z,15168
2017-03-24T07:08:36.050Z,15840
2017-03-24T07:09:37.293Z,15968
2017-03-24T07:10:38.580Z,16640
2017-03-24T07:11:39.848Z,16960
2017-03-24T07:12:41.198Z,17952
2017-03-24T07:13:42.434Z,18816
2017-03-24T07:14:43.666Z,19264
2017-03-24T07:15:44.910Z,19776
2017-03-24T07:16:46.135Z,19808
2017-03-24T07:17:47.393Z,19936
2017-03-24T07:18:48.634Z,20448
2017-03-24T07:19:49.902Z,20448
2017-03-24T07:20:51.122Z,20896
2017-03-24T07:21:52.373Z,21312
2017-03-24T07:22:53.600Z,21376
2017-03-24T07:23:54.861Z,21312
2017-03-24T07:24:56.104Z,20608
2017-03-24T07:25:57.357Z,20576
2017-03-24T07:26:58.593Z,20704
2017-03-24T07:27:59.828Z,20896
2017-03-24T07:29:01.064Z,20960
2017-03-24T07:30:02.309Z,20928
2017-03-24T07:31:03.673Z,20832
2017-03-24T07:32:04.891Z,21312
2017-03-24T07:33:06.185Z,21184
2017-03-24T07:34:07.507Z,21216
2017-03-24T07:35:08.751Z,21248
2017-03-24T07:36:10.010Z,21184
2017-03-24T07:37:11.269Z,22304
2017-03-24T07:38:12.521Z,22528
2017-03-24T07:39:13.785Z,23168
2017-03-24T07:40:15.024Z,23424
2017-03-24T07:41:16.287Z,23584
2017-03-24T07:42:17.532Z,23616
2017-03-24T07:43:18.828Z,24192
2017-03-24T07:44:20.066Z,24128
2017-03-24T07:45:21.353Z,24352
2017-03-24T07:46:22.614Z,21952
2017-03-24T07:47:23.865Z,21120
2017-03-24T07:48:25.109Z,21888
2017-03-24T07:49:26.397Z,24096
2017-03-24T07:50:27.636Z,24736
2017-03-24T07:51:28.888Z,24704
2017-03-24T07:52:30.129Z,26432
2017-03-24T07:53:31.376Z,26112
2017-03-24T07:54:32.623Z,24224
2017-03-24T07:55:33.876Z,22336
2017-03-24T07:56:35.113Z,22688
2017-03-24T07:57:36.402Z,21408
2017-03-24T07:58:37.645Z,21216
2017-03-24T07:59:38.898Z,21120
2017-03-24T08:00:40.129Z,21600
2017-03-24T08:01:41.379Z,20608
2017-03-24T08:02:42.637Z,20448
2017-03-24T08:03:43.896Z,20448
2017-03-24T08:04:45.136Z,20288
2017-03-24T08:05:46.382Z,19936
2017-03-24T08:06:47.652Z,20288
2017-03-24T08:07:48.884Z,19744
2017-03-24T08:08:50.136Z,19808
2017-03-24T08:09:51.451Z,19680
2017-03-24T08:10:52.694Z,20000
2017-03-24T08:11:53.989Z,19840
2017-03-24T08:12:55.238Z,20064
2017-03-24T08:13:56.509Z,19840
2017-03-24T08:14:57.771Z,20128
2017-03-24T08:15:59.043Z,19712
2017-03-24T08:17:00.277Z,19904
2017-03-24T08:18:01.566Z,19424
2017-03-24T08:19:02.822Z,19904
2017-03-24T08:20:04.057Z,19936
2017-03-24T08:21:05.315Z,19776
2017-03-24T08:22:06.640Z,19840
2017-03-24T08:23:07.991Z,19840
2017-03-24T08:24:09.240Z,20256
2017-03-24T08:25:10.489Z,20064
2017-03-24T08:26:11.738Z,19968
2017-03-24T08:27:13.009Z,20896
2017-03-24T08:28:14.234Z,20384
2017-03-24T08:29:15.485Z,20512
2017-03-24T08:30:16.734Z,20640
2017-03-24T08:31:17.984Z,20032
2017-03-24T08:32:19.244Z,20544
2017-03-24T08:33:20.512Z,21088
2017-03-24T08:34:21.749Z,20064
2017-03-24T08:35:22.981Z,20928
2017-03-24T08:36:24.249Z,20672
2017-03-24T08:37:25.620Z,21376
2017-03-24T08:38:26.869Z,20928
2017-03-24T08:39:28.122Z,21408
2017-03-24T08:40:29.359Z,21888
2017-03-24T08:41:30.646Z,22112
2017-03-24T08:42:31.859Z,22752
2017-03-24T08:43:33.142Z,23040
2017-03-24T08:44:34.457Z,22592
2017-03-24T08:45:35.776Z,22144
2017-03-24T08:46:37.042Z,22912
2017-03-24T08:47:38.274Z,22496
2017-03-24T08:48:39.527Z,23264
2017-03-24T08:49:40.789Z,23072
2017-03-24T08:50:42.101Z,23712
2017-03-24T08:51:43.362Z,24768
2017-03-24T08:52:44.575Z,24736
2017-03-24T08:53:45.854Z,23520
2017-03-24T08:54:47.089Z,25312
2017-03-24T08:55:48.332Z,25280
2017-03-24T08:56:49.637Z,25024
2017-03-24T08:57:50.890Z,24832
2017-03-24T08:58:52.151Z,25024
2017-03-24T08:59:53.419Z,24416
2017-03-24T09:00:54.673Z,24768
2017-03-24T09:01:55.988Z,25408
2017-03-24T09:02:57.249Z,25472
2017-03-24T09:03:58.496Z,25760
2017-03-24T09:04:59.748Z,24896
2017-03-24T09:06:01.000Z,25152
2017-03-24T09:07:02.387Z,25312
2017-03-24T09:08:03.754Z,25824
2017-03-24T09:09:04.971Z,26752
2017-03-24T09:10:06.222Z,27456
2017-03-24T09:11:07.469Z,20512
2017-03-24T09:12:08.720Z,26816
2017-03-24T09:13:10.011Z,26560
2017-03-24T09:14:11.262Z,26016
2017-03-24T09:15:12.509Z,26784
2017-03-24T09:16:13.766Z,20192
2017-03-24T09:17:15.011Z,27808
2017-03-24T09:18:16.256Z,28128
2017-03-24T09:19:17.519Z,19264
2017-03-24T09:20:18.797Z,27136
2017-03-24T09:21:20.312Z,28608
2017-03-24T09:22:21.551Z,27968
2017-03-24T09:23:22.842Z,27616
2017-03-24T09:24:24.089Z,26272
2017-03-24T09:25:25.434Z,26880
2017-03-24T09:26:26.698Z,29600
2017-03-24T09:27:27.963Z,29856
2017-03-24T09:28:29.218Z,30976
2017-03-24T09:29:30.509Z,30944
2017-03-24T09:30:31.744Z,31392
2017-03-24T09:31:33.173Z,30496
2017-03-24T09:32:34.337Z,30560
2017-03-24T09:33:35.792Z,26784
2017-03-24T09:34:37.048Z,31648
2017-03-24T09:35:38.302Z,31232
2017-03-24T09:36:39.553Z,20032
2017-03-24T09:37:40.822Z,30336
2017-03-24T09:38:42.166Z,29376
2017-03-24T09:39:43.460Z,29184
2017-03-24T09:40:44.707Z,15936
2017-03-24T09:41:46.017Z,32064
2017-03-24T09:42:47.287Z,33312
2017-03-24T09:43:48.564Z,35360
2017-03-24T09:44:49.814Z,36608
2017-03-24T09:45:51.058Z,36416
2017-03-24T09:46:52.353Z,38688
2017-03-24T09:47:53.611Z,40544
2017-03-24T09:48:54.872Z,39776
2017-03-24T09:49:56.192Z,40000
2017-03-24T09:50:57.445Z,42208
2017-03-24T09:51:58.722Z,42656
2017-03-24T09:52:59.974Z,45600
2017-03-24T09:54:01.277Z,45440
2017-03-24T09:55:02.685Z,47200
2017-03-24T09:56:03.992Z,52992
2017-03-24T09:57:05.263Z,51232
2017-03-24T09:58:06.534Z,55040
2017-03-24T09:59:07.831Z,52000
2017-03-24T10:00:09.104Z,48544
2017-03-24T10:01:10.339Z,49952
2017-03-24T10:02:11.605Z,52352
2017-03-24T10:03:12.846Z,54272
2017-03-24T10:04:14.105Z,46848
2017-03-24T10:05:15.362Z,56192
2017-03-24T10:06:16.619Z,54560
2017-03-24T10:07:17.878Z,52544
2017-03-24T10:08:19.162Z,52192
2017-03-24T10:09:20.439Z,57856
2017-03-24T10:10:21.697Z,60576
2017-03-24T10:11:22.979Z,68448
2017-03-24T10:12:24.297Z,71680
2017-03-24T10:13:25.554Z,68160
2017-03-24T10:14:26.817Z,69504
2017-03-24T10:15:28.162Z,72992
2017-03-24T10:16:29.425Z,74816
2017-03-24T10:17:30.690Z,72768
2017-03-24T10:18:31.994Z,73472
2017-03-24T10:19:33.319Z,68768
2017-03-24T10:20:34.535Z,68288
2017-03-24T10:21:36.077Z,74080
2017-03-24T10:22:37.300Z,73312
2017-03-24T10:23:38.643Z,64352
2017-03-24T10:24:39.933Z,65920
2017-03-24T10:25:41.204Z,69056
2017-03-24T10:26:42.448Z,68704
2017-03-24T10:27:43.712Z,69920
2017-03-24T10:28:44.971Z,57696
2017-03-24T10:29:46.225Z,50528
2017-03-24T10:30:47.477Z,49696
2017-03-24T10:31:48.785Z,47136
2017-03-24T10:32:50.028Z,33728
2017-03-24T10:33:51.293Z,47328
2017-03-24T10:34:52.541Z,47872
2017-03-24T10:35:53.792Z,48640
2017-03-24T10:36:55.050Z,52000
2017-03-24T10:37:56.339Z,52512
2017-03-24T10:38:57.600Z,51584
2017-03-24T10:39:58.851Z,50400
2017-03-24T10:41:00.107Z,48672
2017-03-24T10:42:01.357Z,51264
2017-03-24T10:43:02.614Z,49056
2017-03-24T10:44:03.908Z,49312
2017-03-24T10:45:05.156Z,50272
2017-03-24T10:46:06.401Z,47808
2017-03-24T10:47:07.650Z,45632
2017-03-24T10:48:08.900Z,25120
2017-03-24T10:49:10.155Z,10584
2017-03-24T10:50:11.407Z,10652
2017-03-24T10:51:12.677Z,12016
2017-03-24T10:52:14.047Z,12372
2017-03-24T10:53:15.296Z,12024
2017-03-24T10:54:16.565Z,10192
2017-03-24T10:55:17.853Z,10176
2017-03-24T10:56:19.200Z,9360
2017-03-24T10:57:20.452Z,9216
2017-03-24T10:58:21.694Z,9116
2017-03-24T10:59:22.939Z,9132
2017-03-24T11:00:24.200Z,8884
2017-03-24T11:01:25.471Z,8616
2017-03-24T11:02:26.806Z,8652
2017-03-24T11:03:28.125Z,8608
2017-03-24T11:04:29.370Z,8540
2017-03-24T11:05:30.629Z,8564
2017-03-24T11:06:31.878Z,8564
2017-03-24T11:07:33.132Z,8548
2017-03-24T11:08:34.494Z,8012
2017-03-24T11:09:35.792Z,8040
2017-03-24T11:10:37.022Z,7948
2017-03-24T11:11:38.269Z,7748
2017-03-24T11:12:39.531Z,7896
2017-03-24T11:13:40.787Z,7724
2017-03-24T11:14:42.031Z,7888
2017-03-24T11:15:43.267Z,7960
2017-03-24T11:16:44.516Z,7960
2017-03-24T11:17:45.765Z,8000
2017-03-24T11:18:47.014Z,7868
2017-03-24T11:19:48.433Z,7592
2017-03-24T11:20:49.740Z,7412
2017-03-24T11:21:50.971Z,7284
2017-03-24T11:22:52.218Z,7172
2017-03-24T11:23:53.491Z,7120
2017-03-24T11:24:54.737Z,6984
2017-03-24T11:25:56.086Z,6892
2017-03-24T11:26:57.307Z,6812
2017-03-24T11:27:58.568Z,6708
2017-03-24T11:28:59.897Z,6688
2017-03-24T11:30:01.144Z,6668
2017-03-24T11:31:02.387Z,6668
2017-03-24T11:32:03.634Z,6676
2017-03-24T11:33:05.111Z,6616
2017-03-24T11:34:06.352Z,6532
2017-03-24T11:35:07.628Z,6576
2017-03-24T11:36:08.849Z,6540
2017-03-24T11:37:10.105Z,6420
2017-03-24T11:38:11.544Z,6432
2017-03-24T11:39:12.775Z,6440
2017-03-24T11:40:14.217Z,6448
2017-03-24T11:41:15.475Z,6472
2017-03-24T11:42:16.764Z,6456
2017-03-24T11:43:18.022Z,6396
2017-03-24T11:44:19.282Z,6416
2017-03-24T11:45:20.616Z,6540
2017-03-24T11:46:21.979Z,6612
2017-03-24T11:47:23.258Z,6652
2017-03-24T11:48:24.517Z,6644
2017-03-24T11:49:25.800Z,6668
2017-03-24T11:50:27.026Z,6680
2017-03-24T11:51:28.291Z,6680
2017-03-24T11:52:29.529Z,6680
2017-03-24T11:53:30.788Z,6688
2017-03-24T11:54:32.123Z,6656
2017-03-24T11:55:33.387Z,6632
2017-03-24T11:56:34.634Z,6576
2017-03-24T11:57:35.880Z,6504
2017-03-24T11:58:37.148Z,6456
2017-03-24T11:59:38.367Z,6380
2017-03-24T12:00:39.634Z,6320
2017-03-24T12:01:40.869Z,6248
2017-03-24T12:02:42.246Z,6204
2017-03-24T12:03:43.487Z,6164
2017-03-24T12:04:44.735Z,6136
2017-03-24T12:05:45.976Z,6088
2017-03-24T12:06:47.237Z,6028
2017-03-24T12:07:48.586Z,5984
2017-03-24T12:08:49.825Z,5980
2017-03-24T12:09:51.060Z,5932
2017-03-24T12:10:52.305Z,5904
2017-03-24T12:11:53.540Z,5884
2017-03-24T12:12:54.865Z,5852
2017-03-24T12:13:56.178Z,5812
2017-03-24T12:14:57.497Z,5748
2017-03-24T12:15:58.706Z,5676
2017-03-24T12:17:00.046Z,5652
2017-03-24T12:18:01.294Z,5604
2017-03-24T12:19:02.692Z,5560
2017-03-24T12:20:03.933Z,5500
2017-03-24T12:21:05.211Z,5452
2017-03-24T12:22:06.448Z,5396
2017-03-24T12:23:07.688Z,5360
2017-03-24T12:24:08.990Z,5364
2017-03-24T12:25:10.247Z,5356
2017-03-24T12:26:11.584Z,5372
2017-03-24T12:27:12.830Z,5360
2017-03-24T12:28:14.072Z,5336
2017-03-24T12:29:15.338Z,5304
2017-03-24T12:30:16.638Z,5280
2017-03-24T12:31:17.862Z,5264
2017-03-24T12:32:19.086Z,5224
2017-03-24T12:33:20.341Z,5192
2017-03-24T12:34:21.550Z,5160
2017-03-24T12:35:22.825Z,5156
2017-03-24T12:36:24.068Z,5156
2017-03-24T12:37:25.309Z,5140
2017-03-24T12:38:26.608Z,5108
2017-03-24T12:39:27.851Z,5096
2017-03-24T12:40:29.098Z,5076
2017-03-24T12:41:30.371Z,5048
2017-03-24T12:42:31.620Z,5024
2017-03-24T12:43:32.851Z,5012
2017-03-24T12:44:34.092Z,4988
2017-03-24T12:45:35.336Z,4960
2017-03-24T12:46:36.621Z,4936
2017-03-24T12:47:37.881Z,4900
2017-03-24T12:48:39.154Z,4856
2017-03-24T12:49:40.368Z,4816
2017-03-24T12:50:41.622Z,4764
2017-03-24T12:51:42.974Z,4700
2017-03-24T12:52:44.226Z,4656
2017-03-24T12:53:45.478Z,4608
2017-03-24T12:54:46.714Z,4568
2017-03-24T12:55:48.011Z,4528
2017-03-24T12:56:49.222Z,4492
2017-03-24T12:57:50.583Z,4460
2017-03-24T12:58:51.837Z,4424
2017-03-24T12:59:53.077Z,4388
2017-03-24T13:00:54.326Z,4352
2017-03-24T13:01:55.565Z,4312
2017-03-24T13:02:56.825Z,4268
2017-03-24T13:03:58.078Z,4236
2017-03-24T13:04:59.333Z,4212
2017-03-24T13:06:00.573Z,4180
2017-03-24T13:07:01.823Z,4160
2017-03-24T13:08:03.122Z,4144
2017-03-24T13:09:04.339Z,4120
2017-03-24T13:10:05.608Z,4088
2017-03-24T13:11:06.850Z,4072
2017-03-24T13:12:08.218Z,4060
2017-03-24T13:13:09.465Z,4044
2017-03-24T13:14:10.716Z,4020
2017-03-24T13:15:11.958Z,3996
2017-03-24T13:16:13.206Z,3984
2017-03-24T13:17:14.531Z,3968
2017-03-24T13:18:15.878Z,3948
2017-03-24T13:19:17.113Z,3916
2017-03-24T13:20:18.352Z,3888
2017-03-24T13:21:19.592Z,3872
2017-03-24T13:22:20.828Z,3868
2017-03-24T13:23:22.098Z,3860
2017-03-24T13:24:23.369Z,3840
2017-03-24T13:25:24.609Z,3824
2017-03-24T13:26:25.856Z,3816
2017-03-24T13:27:27.098Z,3800
2017-03-24T13:28:28.424Z,3788
2017-03-24T13:29:29.719Z,3772
2017-03-24T13:30:30.954Z,3756
2017-03-24T13:31:32.239Z,3740
2017-03-24T13:32:33.471Z,3724
2017-03-24T13:33:34.721Z,3716
2017-03-24T13:34:35.970Z,3704
2017-03-24T13:35:37.259Z,3704
2017-03-24T13:36:38.569Z,3696
2017-03-24T13:37:39.907Z,3680
2017-03-24T13:38:41.128Z,3668
2017-03-24T13:39:42.385Z,3636
2017-03-24T13:40:43.696Z,3632
2017-03-24T13:41:44.945Z,3636
2017-03-24T13:42:46.194Z,3620
2017-03-24T13:43:47.435Z,3608
2017-03-24T13:44:48.683Z,3588
2017-03-24T13:45:49.939Z,3560
2017-03-24T13:46:51.163Z,3556
2017-03-24T13:47:52.631Z,3540
2017-03-24T13:48:53.868Z,3536
2017-03-24T13:49:55.109Z,3524
2017-03-24T13:50:56.352Z,3512
2017-03-24T13:51:57.587Z,3500
2017-03-24T13:52:58.936Z,3492
2017-03-24T13:54:00.218Z,3488
2017-03-24T13:55:01.456Z,3484
2017-03-24T13:56:02.713Z,3484
2017-03-24T13:57:03.950Z,3476
2017-03-24T13:58:05.218Z,3476
2017-03-24T13:59:06.458Z,3464